world map with PEG marked

PEG - Airport

This information may not be accurate or current and is not valid for navigation or flight planning. No warranty of fitness for any purpose is made or implied.

flag of Umbriaflag of Italy

Donate via PayPal

Additional information is available on the NEW Great Circle Mapper

Location
City:  Perugia, Umbria, Italy
Name:Perugia San Francesco d'Assisi (Umbria International, Sant'Egidio)
ICAO / IATA:LIRZ / PEG

Details
Type:Airport (Aerodrome, Airfield)
Latitude:43°05'45"N (43.095906)
Longitude:12°30'48"E (12.513222)
Datum:WGS 1984
Elevation:693 ft (211 m)
Runways:1
Longest:5564 × 148 ft (1696 × 45 m)

Time
Timezone:UTC+1 (DST+4)
Local Time:

Weather
METAR:LIRZ  041350Z 03015KT 9999 BKN040 11/04 Q1019
TAF:LIRZ  041100Z 0412/0512 04010KT 9999 SCT040

Related Locations
Nearby:
Farthest:CHT: 11987 mi / 19291 km
Waitangi [Tuuta], CIT, NZ

Find:

   beyond  
but within

Other Information
Maps:
Sources:

  


 


Great Circle Mapper   Great Circle Mapper
Great Circle Mapper FAQ   Great Circle Mapper FAQ
  Karl's Home Page
KLSē   KLSē Home
   GC on Facebook
Airlines of the World   Airlines of the World
Donate via PayPal


Copyright © 2004-2019, Karl L. Swartz. All rights reserved.
All trademarks mentioned herein belong to their respective owners.

Please see credits for attribution and copyright information.

Karl Swartz <karl@kls2.com>
  Powered by FreeBSD
Valid HTML 4.01!
Labeled with ICRA
hCard Microformat
Geo Microformat